createdAt,value
2022-10-22T00:00:55.437Z,100.00
2022-10-22T00:03:21.975Z,100.00
2022-10-22T00:05:48.516Z,100.00
2022-10-22T00:08:15.082Z,100.00
2022-10-22T00:10:41.652Z,100.00
2022-10-22T00:13:07.985Z,100.00
2022-10-22T00:15:34.949Z,100.00
2022-10-22T00:18:01.364Z,100.00
2022-10-22T00:20:27.835Z,100.00
2022-10-22T00:22:54.333Z,100.00
2022-10-22T00:25:21.000Z,100.00
2022-10-22T00:27:47.352Z,100.00
2022-10-22T00:30:14.037Z,100.00
2022-10-22T00:32:40.691Z,100.00
2022-10-22T00:35:07.445Z,100.00
2022-10-22T00:37:33.971Z,100.00
2022-10-22T00:40:00.281Z,100.00
2022-10-22T00:42:27.619Z,100.00
2022-10-22T00:45:02.904Z,100.00
2022-10-22T00:47:35.548Z,100.00
2022-10-22T00:50:05.122Z,100.00
2022-10-22T00:52:32.145Z,100.00
2022-10-22T00:54:59.565Z,100.00
2022-10-22T00:57:26.154Z,100.00
2022-10-22T00:59:52.957Z,100.00
2022-10-22T01:02:19.445Z,100.00
2022-10-22T01:04:45.934Z,100.00
2022-10-22T01:07:22.008Z,100.00
2022-10-22T01:10:03.217Z,100.00
2022-10-22T01:12:48.148Z,100.00
2022-10-22T01:15:37.464Z,100.00
2022-10-22T01:18:21.268Z,100.00
2022-10-22T01:20:54.534Z,100.00
2022-10-22T01:23:39.187Z,100.00
2022-10-22T01:28:54.181Z,100.00
2022-10-22T01:31:23.585Z,100.00
2022-10-22T01:33:53.298Z,100.00
2022-10-22T01:36:21.347Z,100.00
2022-10-22T01:38:49.872Z,100.00
2022-10-22T01:41:16.450Z,100.00
2022-10-22T01:43:42.774Z,100.00
2022-10-22T01:46:11.605Z,100.00
2022-10-22T01:48:45.982Z,100.00
2022-10-22T01:51:48.326Z,100.00
2022-10-22T01:54:20.790Z,100.00
2022-10-22T01:57:17.821Z,100.00
2022-10-22T01:59:57.951Z,100.00
2022-10-22T02:02:51.176Z,100.00
2022-10-22T02:05:40.078Z,100.00
2022-10-22T02:08:10.318Z,100.00
2022-10-22T02:10:42.105Z,100.00
2022-10-22T02:13:12.461Z,100.00
2022-10-22T02:15:40.967Z,100.00
2022-10-22T02:18:10.416Z,100.00
2022-10-22T02:20:41.725Z,100.00
2022-10-22T02:23:09.231Z,100.00
2022-10-22T02:25:39.919Z,100.00
2022-10-22T02:28:16.813Z,100.00
2022-10-22T02:30:47.047Z,100.00
2022-10-22T02:33:19.936Z,100.00
2022-10-22T02:35:47.697Z,100.00
2022-10-22T02:38:14.966Z,100.00
2022-10-22T02:40:41.646Z,100.00
2022-10-22T02:43:08.530Z,100.00
2022-10-22T02:45:35.650Z,100.00
2022-10-22T02:48:02.431Z,100.00
2022-10-22T02:50:29.381Z,100.00
2022-10-22T02:52:55.706Z,100.00
2022-10-22T02:55:22.179Z,100.00
2022-10-22T02:57:48.638Z,100.00
2022-10-22T03:00:15.433Z,100.00
2022-10-22T03:02:41.905Z,100.00
2022-10-22T03:05:08.822Z,100.00
2022-10-22T03:07:35.542Z,100.00
2022-10-22T03:10:02.067Z,100.00
2022-10-22T03:12:28.424Z,100.00
2022-10-22T03:14:54.795Z,100.00
2022-10-22T03:17:21.249Z,100.00
2022-10-22T03:19:47.645Z,100.00
2022-10-22T03:22:21.089Z,100.00
2022-10-22T03:24:52.165Z,100.00
2022-10-22T03:27:21.740Z,100.00
2022-10-22T03:29:51.498Z,100.00
2022-10-22T03:32:18.579Z,100.00
2022-10-22T03:34:44.942Z,100.00
2022-10-22T03:37:12.145Z,100.00
2022-10-22T03:39:38.861Z,100.00
2022-10-22T03:42:06.967Z,100.00
2022-10-22T03:44:35.537Z,100.00
2022-10-22T03:47:02.859Z,100.00
2022-10-22T03:49:29.455Z,100.00
2022-10-22T03:51:56.006Z,100.00
2022-10-22T03:54:22.431Z,100.00
2022-10-22T03:56:48.798Z,100.00
2022-10-22T03:59:15.454Z,100.00
2022-10-22T04:01:41.857Z,100.00
2022-10-22T04:04:08.942Z,100.00
2022-10-22T04:06:35.677Z,100.00
2022-10-22T04:09:02.092Z,100.00
2022-10-22T04:11:28.606Z,100.00
2022-10-22T04:13:54.945Z,100.00
2022-10-22T04:16:25.124Z,100.00
2022-10-22T04:18:54.168Z,100.00
2022-10-22T04:21:20.648Z,100.00
2022-10-22T04:23:49.459Z,100.00
2022-10-22T04:26:18.467Z,100.00
2022-10-22T04:28:46.728Z,100.00
2022-10-22T04:31:15.760Z,100.00
2022-10-22T04:33:43.422Z,96.51
2022-10-22T04:36:12.773Z,97.61
2022-10-22T04:38:39.973Z,95.52
2022-10-22T04:41:21.993Z,96.25
2022-10-22T04:43:49.194Z,95.76
2022-10-22T04:46:17.557Z,97.45
2022-10-22T04:48:45.736Z,99.04
2022-10-22T04:51:15.786Z,97.99
2022-10-22T04:53:43.572Z,98.07
2022-10-22T04:56:19.678Z,97.88
2022-10-22T04:58:48.483Z,98.74
2022-10-22T05:01:18.434Z,98.40
2022-10-22T05:03:46.192Z,98.75
2022-10-22T05:06:14.179Z,98.59
2022-10-22T05:08:40.979Z,99.17
2022-10-22T05:11:19.369Z,99.20
2022-10-22T05:13:46.456Z,98.59
2022-10-22T05:16:13.731Z,96.92
2022-10-22T05:18:42.478Z,97.96
2022-10-22T05:21:11.538Z,99.01
2022-10-22T05:23:38.605Z,98.83
2022-10-22T05:26:07.132Z,98.89
2022-10-22T05:28:34.332Z,96.33
2022-10-22T05:31:02.047Z,97.62
2022-10-22T05:33:29.798Z,97.07
2022-10-22T05:35:56.933Z,96.76
2022-10-22T05:38:24.082Z,97.92
2022-10-22T05:41:08.632Z,98.37
2022-10-22T05:43:36.273Z,98.64
2022-10-22T05:46:21.992Z,98.44
2022-10-22T05:48:53.516Z,98.48
2022-10-22T05:51:21.590Z,98.91
2022-10-22T05:53:52.595Z,99.20
2022-10-22T05:56:19.040Z,96.30
2022-10-22T05:58:45.589Z,94.97
2022-10-22T06:01:23.942Z,94.70
2022-10-22T06:03:53.794Z,93.44
2022-10-22T06:06:27.787Z,94.92
2022-10-22T06:08:56.206Z,95.30
2022-10-22T06:11:23.730Z,95.91
2022-10-22T06:13:51.517Z,96.77
2022-10-22T06:16:18.586Z,96.33
2022-10-22T06:18:45.390Z,96.88
2022-10-22T06:21:15.272Z,98.13
2022-10-22T06:23:43.132Z,98.78
2022-10-22T06:26:10.772Z,99.32
2022-10-22T06:28:38.037Z,99.66
2022-10-22T06:31:05.233Z,100.00
2022-10-22T06:33:33.686Z,100.00
2022-10-22T06:36:15.066Z,100.00
2022-10-22T06:38:42.454Z,100.00
2022-10-22T06:41:14.016Z,100.00
2022-10-22T06:43:45.677Z,100.00
2022-10-22T06:46:14.917Z,100.00
2022-10-22T06:48:48.980Z,100.00
2022-10-22T06:51:15.371Z,100.00
2022-10-22T06:53:42.173Z,100.00
2022-10-22T06:56:11.346Z,100.00
2022-10-22T06:58:38.283Z,100.00
2022-10-22T07:01:11.150Z,99.69
2022-10-22T07:03:39.244Z,100.00
2022-10-22T07:06:10.183Z,100.00
2022-10-22T07:08:38.106Z,99.86
2022-10-22T07:11:18.949Z,99.18
2022-10-22T07:13:46.360Z,97.84
2022-10-22T07:16:14.126Z,95.69
2022-10-22T07:18:41.757Z,96.03
2022-10-22T07:21:09.303Z,97.02
2022-10-22T07:23:35.966Z,97.35
2022-10-22T07:26:03.005Z,96.22
2022-10-22T07:28:30.366Z,96.15
2022-10-22T07:30:56.742Z,94.77
2022-10-22T07:33:23.189Z,94.87
2022-10-22T07:35:49.562Z,95.48
2022-10-22T07:38:16.218Z,96.26
2022-10-22T07:40:42.690Z,94.98
2022-10-22T07:43:09.115Z,95.53
2022-10-22T07:45:35.634Z,95.95
2022-10-22T07:48:02.049Z,94.09
2022-10-22T07:50:28.631Z,90.06
2022-10-22T07:52:57.446Z,90.62
2022-10-22T07:55:25.099Z,88.25
2022-10-22T07:57:51.556Z,89.69
2022-10-22T08:00:20.495Z,90.29
2022-10-22T08:02:49.571Z,91.82
2022-10-22T08:05:15.970Z,93.02
2022-10-22T08:07:43.249Z,91.50
2022-10-22T08:10:11.503Z,91.81
2022-10-22T08:12:38.653Z,92.33
2022-10-22T08:15:06.151Z,92.81
2022-10-22T08:17:32.481Z,92.38
2022-10-22T08:19:59.153Z,92.59
2022-10-22T08:22:25.976Z,93.33
2022-10-22T08:24:52.462Z,94.16
2022-10-22T08:27:19.194Z,94.74
2022-10-22T08:29:45.949Z,95.16
2022-10-22T08:32:12.352Z,95.39
2022-10-22T08:34:39.119Z,94.60
2022-10-22T08:37:05.445Z,94.67
2022-10-22T08:39:31.885Z,94.48
2022-10-22T08:42:33.485Z,93.68
2022-10-22T08:45:06.053Z,93.22
2022-10-22T08:47:49.761Z,91.73
2022-10-22T08:50:23.176Z,91.19
2022-10-22T08:52:59.555Z,90.13
2022-10-22T08:55:26.392Z,88.22
2022-10-22T08:57:55.771Z,87.23
2022-10-22T09:00:37.555Z,87.01
2022-10-22T09:03:09.824Z,86.24
2022-10-22T09:05:44.198Z,88.45
2022-10-22T09:08:13.041Z,88.63
2022-10-22T09:10:45.987Z,88.21
2022-10-22T09:13:16.091Z,88.31
2022-10-22T09:15:44.993Z,86.64
2022-10-22T09:18:41.082Z,86.88
2022-10-22T09:21:26.805Z,87.13
2022-10-22T09:24:05.959Z,85.36
2022-10-22T09:26:37.125Z,83.74
2022-10-22T09:29:04.620Z,84.61
2022-10-22T09:31:33.361Z,85.11
2022-10-22T09:34:00.321Z,86.11
2022-10-22T09:36:29.212Z,87.35
2022-10-22T09:38:56.098Z,86.06
2022-10-22T09:41:26.255Z,86.33
2022-10-22T09:43:52.769Z,86.36
2022-10-22T09:46:22.080Z,83.99
2022-10-22T09:48:53.837Z,84.69
2022-10-22T09:51:21.773Z,83.17
2022-10-22T09:53:57.000Z,83.97
2022-10-22T09:56:38.940Z,84.87
2022-10-22T09:59:06.786Z,84.69
2022-10-22T10:01:36.903Z,84.62
2022-10-22T10:04:09.857Z,85.29
2022-10-22T10:06:38.744Z,84.81
2022-10-22T10:09:21.458Z,84.62
2022-10-22T10:12:05.284Z,84.67
2022-10-22T10:14:39.684Z,85.70
2022-10-22T10:17:17.896Z,85.06
2022-10-22T10:20:03.708Z,83.73
2022-10-22T10:22:48.518Z,82.94
2022-10-22T10:25:28.270Z,82.98
2022-10-22T10:28:11.430Z,83.09
2022-10-22T10:30:51.653Z,82.47
2022-10-22T10:33:32.091Z,81.75
2022-10-22T10:36:08.295Z,83.41
2022-10-22T10:38:46.791Z,82.08
2022-10-22T10:41:22.776Z,83.50
2022-10-22T10:43:52.081Z,79.59
2022-10-22T10:46:34.796Z,80.68
2022-10-22T10:49:10.979Z,79.46
2022-10-22T10:51:52.961Z,77.69
2022-10-22T10:54:44.125Z,80.80
2022-10-22T10:57:34.396Z,79.41
2022-10-22T11:00:11.338Z,75.88
2022-10-22T11:02:43.684Z,78.19
2022-10-22T11:05:30.632Z,80.62
2022-10-22T11:08:21.321Z,77.76
2022-10-22T11:11:02.698Z,78.24
2022-10-22T11:13:45.651Z,75.84
2022-10-22T11:16:28.638Z,77.96
2022-10-22T11:19:15.493Z,75.40
2022-10-22T11:22:03.578Z,74.13
2022-10-22T11:24:45.223Z,74.98
2022-10-22T11:27:22.010Z,74.04
2022-10-22T11:30:02.000Z,76.03
2022-10-22T11:32:29.892Z,72.17
2022-10-22T11:35:01.042Z,72.01
2022-10-22T11:37:32.595Z,72.51
2022-10-22T11:40:05.969Z,72.57
2022-10-22T11:42:34.369Z,72.89
2022-10-22T11:45:26.216Z,72.77
2022-10-22T11:47:52.528Z,71.00
2022-10-22T11:50:24.834Z,70.45
2022-10-22T11:53:02.004Z,71.06
2022-10-22T11:55:40.814Z,70.45
2022-10-22T11:58:27.084Z,69.01
2022-10-22T12:01:01.782Z,68.78
2022-10-22T12:03:30.871Z,71.09
2022-10-22T12:06:06.750Z,69.19
2022-10-22T12:08:33.914Z,70.20
2022-10-22T12:11:03.819Z,66.71
2022-10-22T12:13:33.974Z,68.23
2022-10-22T12:16:03.956Z,68.95
2022-10-22T12:18:41.276Z,68.74
2022-10-22T12:21:13.188Z,69.51
2022-10-22T12:23:39.906Z,69.57
2022-10-22T12:26:06.637Z,67.82
2022-10-22T12:28:40.334Z,66.47
2022-10-22T12:31:14.833Z,66.92
2022-10-22T12:33:41.521Z,67.17
2022-10-22T12:36:15.739Z,66.44
2022-10-22T12:38:45.981Z,65.60
2022-10-22T12:41:13.125Z,67.06
2022-10-22T12:43:39.520Z,66.53
2022-10-22T12:46:12.853Z,65.49
2022-10-22T12:48:42.978Z,66.33
2022-10-22T12:51:16.229Z,65.33
2022-10-22T12:53:53.449Z,63.64
2022-10-22T12:56:26.545Z,67.09
2022-10-22T12:58:58.862Z,66.50
2022-10-22T13:01:27.805Z,67.21
2022-10-22T13:04:21.223Z,67.79
2022-10-22T13:07:04.390Z,69.23
2022-10-22T13:09:55.311Z,70.34
2022-10-22T13:12:26.613Z,69.70
2022-10-22T13:14:53.127Z,68.96
2022-10-22T13:17:37.121Z,69.03
2022-10-22T13:20:15.000Z,69.20
2022-10-22T13:22:55.214Z,69.79
2022-10-22T13:25:33.572Z,67.69
2022-10-22T13:28:19.536Z,66.78
2022-10-22T13:31:00.089Z,66.74
2022-10-22T13:33:34.526Z,67.69
2022-10-22T13:36:01.339Z,68.72
2022-10-22T13:38:28.376Z,69.06
2022-10-22T13:40:56.101Z,69.10
2022-10-22T13:43:23.368Z,69.55
2022-10-22T13:45:55.501Z,68.93
2022-10-22T13:48:24.168Z,70.04
2022-10-22T13:50:51.440Z,70.10
2022-10-22T13:53:26.652Z,70.05
2022-10-22T13:55:53.234Z,70.47
2022-10-22T13:58:22.205Z,71.33
2022-10-22T14:00:57.942Z,71.25
2022-10-22T14:03:32.330Z,70.29
2022-10-22T14:05:59.147Z,69.98
2022-10-22T14:08:27.784Z,68.14
2022-10-22T14:10:54.715Z,67.40
2022-10-22T14:13:21.648Z,64.47
2022-10-22T14:15:50.308Z,65.36
2022-10-22T14:18:21.935Z,67.34
2022-10-22T14:20:48.377Z,68.05
2022-10-22T14:23:19.634Z,67.91
2022-10-22T14:25:46.086Z,67.99
2022-10-22T14:28:12.600Z,67.67
2022-10-22T14:30:40.162Z,68.21
2022-10-22T14:33:31.382Z,68.66
2022-10-22T14:36:00.286Z,69.67
2022-10-22T14:38:27.024Z,69.72
2022-10-22T14:40:54.179Z,68.36
2022-10-22T14:43:26.680Z,68.41
2022-10-22T14:45:53.468Z,67.97
2022-10-22T14:50:51.616Z,65.36
2022-10-22T14:53:18.138Z,66.77
2022-10-22T14:55:45.642Z,67.46
2022-10-22T14:58:12.015Z,64.28
2022-10-22T15:00:41.542Z,64.78
2022-10-22T15:03:08.451Z,65.19
2022-10-22T15:05:34.906Z,63.61
2022-10-22T15:08:01.400Z,65.33
2022-10-22T15:10:28.081Z,66.47
2022-10-22T15:12:54.535Z,67.01
2022-10-22T15:18:04.955Z,68.25
2022-10-22T15:20:31.272Z,68.01
2022-10-22T15:22:57.685Z,68.59
2022-10-22T15:25:24.080Z,68.71
2022-10-22T15:27:52.498Z,68.69
2022-10-22T15:30:20.009Z,69.60
2022-10-22T15:32:46.589Z,69.92
2022-10-22T15:35:13.069Z,69.42
2022-10-22T15:37:39.627Z,70.14
2022-10-22T15:40:06.506Z,70.39
2022-10-22T15:42:32.949Z,70.70
2022-10-22T15:44:59.653Z,70.49
2022-10-22T15:47:26.594Z,69.20
2022-10-22T15:49:53.317Z,70.42
2022-10-22T15:52:19.854Z,70.60
2022-10-22T15:54:46.193Z,71.21
2022-10-22T15:57:12.666Z,71.51
2022-10-22T15:59:39.165Z,71.70
2022-10-22T16:02:05.553Z,72.43
2022-10-22T16:04:31.952Z,72.92
2022-10-22T16:06:59.657Z,73.81
2022-10-22T16:09:27.416Z,74.50
2022-10-22T16:11:55.117Z,74.99
2022-10-22T16:14:22.628Z,74.99
2022-10-22T16:16:52.629Z,76.01
2022-10-22T16:19:20.968Z,76.52
2022-10-22T16:21:52.533Z,76.78
2022-10-22T16:24:20.001Z,77.74
2022-10-22T16:26:46.948Z,77.85
2022-10-22T16:29:13.593Z,77.83
2022-10-22T16:31:41.402Z,77.72
2022-10-22T16:34:07.764Z,78.52
2022-10-22T16:36:34.453Z,79.35
2022-10-22T16:39:01.240Z,79.87
2022-10-22T16:41:27.998Z,79.55
2022-10-22T16:43:55.263Z,79.96
2022-10-22T16:46:22.583Z,80.23
2022-10-22T16:48:53.112Z,80.74
2022-10-22T16:51:22.725Z,80.81
2022-10-22T16:53:51.364Z,81.78
2022-10-22T16:56:18.350Z,82.25
2022-10-22T16:58:56.382Z,82.84
2022-10-22T17:01:25.099Z,83.07
2022-10-22T17:03:52.143Z,83.27
2022-10-22T17:06:18.640Z,83.01
2022-10-22T17:08:45.365Z,82.68
2022-10-22T17:11:13.989Z,82.22
2022-10-22T17:13:41.445Z,82.94
2022-10-22T17:16:10.494Z,83.35
2022-10-22T17:18:39.003Z,82.73
2022-10-22T17:21:06.771Z,83.73
2022-10-22T17:23:33.179Z,84.04
2022-10-22T17:26:08.269Z,84.28
2022-10-22T17:28:36.193Z,84.88
2022-10-22T17:31:16.605Z,85.19
2022-10-22T17:33:43.766Z,85.21
2022-10-22T17:36:11.031Z,85.13
2022-10-22T17:38:38.260Z,85.44
2022-10-22T17:41:07.004Z,85.62
2022-10-22T17:43:36.259Z,85.39
2022-10-22T17:46:07.614Z,85.73
2022-10-22T17:48:36.664Z,85.41
2022-10-22T17:51:07.410Z,84.93
2022-10-22T17:53:33.890Z,85.96
2022-10-22T17:56:04.681Z,86.21
2022-10-22T17:58:31.146Z,85.98
2022-10-22T18:00:58.680Z,86.40
2022-10-22T18:03:26.380Z,86.29
2022-10-22T18:05:52.903Z,86.91
2022-10-22T18:08:19.391Z,86.86
2022-10-22T18:10:45.907Z,87.35
2022-10-22T18:13:13.303Z,87.51
2022-10-22T18:15:40.076Z,87.64
2022-10-22T18:18:06.627Z,87.42
2022-10-22T18:20:33.567Z,88.01
2022-10-22T18:23:00.001Z,88.08
2022-10-22T18:25:26.454Z,88.28
2022-10-22T18:27:53.225Z,87.62
2022-10-22T18:30:19.925Z,87.91
2022-10-22T18:32:46.273Z,88.28
2022-10-22T18:35:12.763Z,88.54
2022-10-22T18:37:39.220Z,88.60
2022-10-22T18:40:06.411Z,89.02
2022-10-22T18:42:37.771Z,88.92
2022-10-22T18:45:06.080Z,89.10
2022-10-22T18:47:32.603Z,88.44
2022-10-22T18:49:58.916Z,88.38
2022-10-22T18:52:25.270Z,88.37
2022-10-22T18:54:51.736Z,88.38
2022-10-22T18:57:18.151Z,89.02
2022-10-22T18:59:44.609Z,89.23
2022-10-22T19:02:10.996Z,89.49
2022-10-22T19:04:37.375Z,89.59
2022-10-22T19:07:05.022Z,89.03
2022-10-22T19:09:31.729Z,89.24
2022-10-22T19:11:58.079Z,89.27
2022-10-22T19:14:24.510Z,89.24
2022-10-22T19:16:51.049Z,89.38
2022-10-22T19:19:21.659Z,88.96
2022-10-22T19:21:48.679Z,89.23
2022-10-22T19:24:17.126Z,89.33
2022-10-22T19:26:44.239Z,89.45
2022-10-22T19:29:11.086Z,89.89
2022-10-22T19:31:37.793Z,89.82
2022-10-22T19:34:04.602Z,90.44
2022-10-22T19:36:32.423Z,90.13
2022-10-22T19:38:59.512Z,90.19
2022-10-22T19:41:28.464Z,89.77
2022-10-22T19:43:56.881Z,89.59
2022-10-22T19:46:24.690Z,89.62
2022-10-22T19:51:41.923Z,89.81
2022-10-22T19:54:12.041Z,89.52
2022-10-22T19:56:39.028Z,89.74
2022-10-22T19:59:05.922Z,89.74
2022-10-22T20:01:32.422Z,89.82
2022-10-22T20:03:59.106Z,89.87
2022-10-22T20:06:25.564Z,90.00
2022-10-22T20:08:55.227Z,90.17
2022-10-22T20:11:25.431Z,90.34
2022-10-22T20:13:52.619Z,90.22
2022-10-22T20:16:22.218Z,90.44
2022-10-22T20:18:49.806Z,90.96
2022-10-22T20:21:20.283Z,90.51
2022-10-22T20:23:47.810Z,90.71
2022-10-22T20:26:14.526Z,90.82
2022-10-22T20:28:41.040Z,90.77
2022-10-22T20:31:12.564Z,90.77
2022-10-22T20:33:39.529Z,90.97
2022-10-22T20:36:09.402Z,90.67
2022-10-22T20:41:07.113Z,91.21
2022-10-22T20:43:34.540Z,91.51
2022-10-22T20:46:01.454Z,91.18
2022-10-22T20:48:28.689Z,91.17
2022-10-22T20:50:56.103Z,91.14
2022-10-22T20:53:22.970Z,91.03
2022-10-22T20:55:51.393Z,90.85
2022-10-22T20:58:18.012Z,90.90
2022-10-22T21:00:45.956Z,90.69
2022-10-22T21:03:14.078Z,91.05
2022-10-22T21:05:40.804Z,91.27
2022-10-22T21:08:07.323Z,91.30
2022-10-22T21:10:34.766Z,91.59
2022-10-22T21:13:01.115Z,91.70
2022-10-22T21:15:28.124Z,91.14
2022-10-22T21:17:54.937Z,91.41
2022-10-22T21:20:24.580Z,91.23
2022-10-22T21:22:51.373Z,91.42
2022-10-22T21:25:18.215Z,91.47
2022-10-22T21:27:44.779Z,91.47
2022-10-22T21:30:12.319Z,91.38
2022-10-22T21:32:38.908Z,91.29
2022-10-22T21:35:05.746Z,91.49
2022-10-22T21:37:32.228Z,91.67
2022-10-22T21:39:58.703Z,91.98
2022-10-22T21:42:25.122Z,91.69
2022-10-22T21:44:51.573Z,91.77
2022-10-22T21:47:17.939Z,91.48
2022-10-22T21:49:44.499Z,91.54
2022-10-22T21:52:11.312Z,91.32
2022-10-22T21:54:37.753Z,91.45
2022-10-22T21:57:04.412Z,91.34
2022-10-22T21:59:31.115Z,91.46
2022-10-22T22:02:03.392Z,91.64
2022-10-22T22:04:32.099Z,91.99
2022-10-22T22:06:58.748Z,92.05
2022-10-22T22:09:25.201Z,92.19
2022-10-22T22:11:51.878Z,91.99
2022-10-22T22:14:18.261Z,92.22
2022-10-22T22:16:44.724Z,92.28
2022-10-22T22:19:12.089Z,92.34
2022-10-22T22:21:40.804Z,92.17
2022-10-22T22:24:08.992Z,92.16
2022-10-22T22:26:36.429Z,92.34
2022-10-22T22:29:03.106Z,92.27
2022-10-22T22:31:32.830Z,92.16
2022-10-22T22:34:05.983Z,92.26
2022-10-22T22:36:38.471Z,92.00
2022-10-22T22:39:07.496Z,91.70
2022-10-22T22:41:34.269Z,91.80
2022-10-22T22:44:00.742Z,91.91
2022-10-22T22:46:27.179Z,91.84
2022-10-22T22:48:53.767Z,91.98
2022-10-22T22:51:20.518Z,92.01
2022-10-22T22:53:47.035Z,91.50
2022-10-22T22:56:16.816Z,91.71
2022-10-22T22:58:44.019Z,91.77
2022-10-22T23:01:27.430Z,91.91
2022-10-22T23:03:58.358Z,91.77
2022-10-22T23:06:27.045Z,91.80
2022-10-22T23:08:54.452Z,92.13
2022-10-22T23:11:22.456Z,92.00
2022-10-22T23:13:59.175Z,92.08
2022-10-22T23:16:28.673Z,92.10
2022-10-22T23:18:55.664Z,92.29
2022-10-22T23:21:34.435Z,92.33
2022-10-22T23:24:04.794Z,92.54
2022-10-22T23:26:34.748Z,92.53
2022-10-22T23:29:02.935Z,92.43
2022-10-22T23:31:29.419Z,92.34
2022-10-22T23:33:55.854Z,91.93
2022-10-22T23:36:22.268Z,91.73
2022-10-22T23:38:48.613Z,91.86
2022-10-22T23:41:15.016Z,91.96
2022-10-22T23:43:41.428Z,91.69
2022-10-22T23:46:10.822Z,92.03
2022-10-22T23:48:38.238Z,92.28
2022-10-22T23:51:10.051Z,92.29
2022-10-22T23:53:36.445Z,91.86
2022-10-22T23:56:08.703Z,92.36
2022-10-22T23:58:35.558Z,92.41
